Gmunden, Austria
Current Conditions -  °F | °C
As of 5:50 AM on Saturday 25 Oct 2014 (Local Time) from LOWL Reporting Station
Broken Clouds Broken Clouds  
Wind Chill: 36°   Ceiling: 1400
Heat Index: 41°   Visibility: 5mi
Dew Point: 37°   Wind: 8mph
Humidity: 87%   Direction: 100°E
Pressure: 30.15"   Gusts: NA
Location:  47.92°N, 13.81°E
Report Text: LOWL 250350Z 10007KT 8000 FEW012 BKN014 05/03 Q1021 NOSIG
Loading
Personal Weather Stations






























Interactive Weather Map
Tropical Storm Tracking
New forecast layout! Learn more

10-Day Weather Forecast

Advertisements
Track Severe Weather on mobile